Time;durP1;ratioP1;P1;durP2;ratioP2;P2;SDS_P1;SDS_P2;PMS_P1;PMS_P2;Temp;Humidity;BMP_temperature;BMP_pressure;BME280_temperature;BME280_humidity;BME280_pressure;Samples;Min_cycle;Max_cycle;Signal;HPM_P1;HPM_P2
2023/07/18 00:06:12;;;;;;;13.43;4.75;;;;;;;;;;20921807;28;20040;-70
2023/07/18 00:16:13;;;;;;;8.27;4.03;;;;;;;;;;20921790;28;20475;-71
2023/07/18 00:26:14;;;;;;;11.60;4.30;;;;;;;;;;20920951;28;20490;-69
2023/07/18 00:36:16;;;;;;;9.45;3.50;;;;;;;;;;20920236;28;20056;-71
2023/07/18 00:46:18;;;;;;;8.77;3.40;;;;;;;;;;20918038;28;20506;-69
2023/07/18 00:56:19;;;;;;;14.95;5.07;;;;;;;;;;20918555;28;20081;-70
2023/07/18 01:06:23;;;;;;;7.30;3.97;;;;;;;;;;20917891;28;20037;-70
2023/07/18 01:16:25;;;;;;;8.65;4.00;;;;;;;;;;20916464;28;20162;-70
2023/07/18 01:26:27;;;;;;;10.18;3.88;;;;;;;;;;20916546;28;20406;-70
2023/07/18 01:36:28;;;;;;;13.10;4.45;;;;;;;;;;20915897;28;20414;-70
2023/07/18 01:46:29;;;;;;;11.57;3.35;;;;;;;;;;20915831;28;20429;-70
2023/07/18 01:56:31;;;;;;;8.85;3.22;;;;;;;;;;20914562;28;20106;-70
2023/07/18 02:06:32;;;;;;;10.00;3.42;;;;;;;;;;20914013;28;20052;-70
2023/07/18 02:16:33;;;;;;;10.43;3.30;;;;;;;;;;20912545;28;20045;-70
2023/07/18 02:26:34;;;;;;;8.82;3.42;;;;;;;;;;20913444;28;20072;-70
2023/07/18 02:36:35;;;;;;;8.82;3.22;;;;;;;;;;20928016;28;20513;-69
2023/07/18 02:46:36;;;;;;;12.02;3.20;;;;;;;;;;20929922;28;20096;-70
2023/07/18 02:56:37;;;;;;;14.75;3.78;;;;;;;;;;20926863;28;20088;-70
2023/07/18 03:06:38;;;;;;;11.57;3.22;;;;;;;;;;20927280;28;20116;-70
2023/07/18 03:16:39;;;;;;;10.45;4.10;;;;;;;;;;20926338;28;20079;-70
2023/07/18 03:26:40;;;;;;;9.80;3.70;;;;;;;;;;20925499;28;20055;-68
2023/07/18 03:36:41;;;;;;;12.98;4.35;;;;;;;;;;20924932;28;20045;-69
2023/07/18 03:46:42;;;;;;;14.05;4.22;;;;;;;;;;20921593;28;20395;-70
2023/07/18 03:56:44;;;;;;;10.05;3.90;;;;;;;;;;20923262;28;20116;-70
2023/07/18 04:06:45;;;;;;;11.93;4.18;;;;;;;;;;20922621;28;20063;-69
2023/07/18 04:16:46;;;;;;;11.25;3.92;;;;;;;;;;20920448;28;20071;-69
2023/07/18 04:26:47;;;;;;;12.00;4.88;;;;;;;;;;20919663;28;20045;-69
2023/07/18 04:36:48;;;;;;;12.15;3.85;;;;;;;;;;20920099;28;20066;-70
2023/07/18 04:46:49;;;;;;;7.90;4.20;;;;;;;;;;20918188;28;20060;-70
2023/07/18 04:56:53;;;;;;;15.25;4.18;;;;;;;;;;20918373;28;20041;-69
2023/07/18 05:06:54;;;;;;;9.23;4.38;;;;;;;;;;20917484;28;20380;-69
2023/07/18 05:16:55;;;;;;;15.40;4.13;;;;;;;;;;20916991;28;20539;-68
2023/07/18 05:26:56;;;;;;;13.95;4.85;;;;;;;;;;20914840;28;20049;-69
2023/07/18 05:36:59;;;;;;;12.02;3.90;;;;;;;;;;20915689;28;20048;-71
2023/07/18 05:47:00;;;;;;;17.10;4.75;;;;;;;;;;20916005;28;20063;-71
2023/07/18 05:57:01;;;;;;;14.43;5.00;;;;;;;;;;20912833;28;20060;-71
2023/07/18 06:07:02;;;;;;;15.52;4.85;;;;;;;;;;20913226;28;20394;-72
2023/07/18 06:17:03;;;;;;;10.77;4.53;;;;;;;;;;20912330;28;20073;-71
2023/07/18 06:27:05;;;;;;;14.75;5.07;;;;;;;;;;20912712;28;20120;-71
2023/07/18 06:37:08;;;;;;;10.95;4.65;;;;;;;;;;20912515;28;20045;-72
2023/07/18 06:47:09;;;;;;;17.33;5.43;;;;;;;;;;20913379;28;20057;-71
2023/07/18 06:57:10;;;;;;;15.63;5.45;;;;;;;;;;20911388;28;20044;-71
2023/07/18 07:07:12;;;;;;;19.17;5.30;;;;;;;;;;20911572;28;20041;-72
2023/07/18 07:17:13;;;;;;;12.23;4.80;;;;;;;;;;20918283;28;20055;-72
2023/07/18 07:27:14;;;;;;;13.65;3.42;;;;;;;;;;20964293;28;20053;-65
2023/07/18 07:37:15;;;;;;;12.50;3.63;;;;;;;;;;21042517;28;20119;-71
2023/07/18 07:47:16;;;;;;;14.55;3.72;;;;;;;;;;21090489;28;20048;-72
2023/07/18 07:57:17;;;;;;;18.75;3.90;;;;;;;;;;21089959;28;20047;-72
2023/07/18 08:07:19;;;;;;;14.27;3.67;;;;;;;;;;21088375;28;20040;-72
2023/07/18 08:17:21;;;;;;;12.07;3.67;;;;;;;;;;21086987;28;20136;-73
2023/07/18 08:27:22;;;;;;;17.60;3.92;;;;;;;;;;21085626;28;20060;-72
2023/07/18 08:37:23;;;;;;;9.60;3.75;;;;;;;;;;21085069;28;20127;-70
2023/07/18 08:47:25;;;;;;;12.98;3.85;;;;;;;;;;21084785;28;20069;-72
2023/07/18 08:57:27;;;;;;;15.68;4.10;;;;;;;;;;21084907;28;20485;-72
2023/07/18 09:07:28;;;;;;;17.63;4.05;;;;;;;;;;21082638;28;20070;-69
2023/07/18 09:17:31;;;;;;;12.38;3.80;;;;;;;;;;21083126;28;20044;-67
2023/07/18 09:27:36;;;;;;;14.73;3.90;;;;;;;;;;21080851;28;20101;-67
2023/07/18 09:37:44;;;;;;;14.30;3.70;;;;;;;;;;21080598;28;20052;-67
2023/07/18 09:47:45;;;;;;;10.10;4.10;;;;;;;;;;21081325;28;20432;-64
2023/07/18 09:57:46;;;;;;;12.77;4.50;;;;;;;;;;21080764;28;20079;-64
2023/07/18 10:07:48;;;;;;;15.18;3.97;;;;;;;;;;21080307;28;20497;-66
2023/07/18 10:17:52;;;;;;;10.13;4.00;;;;;;;;;;21079518;28;20055;-62
2023/07/18 10:27:53;;;;;;;9.03;3.97;;;;;;;;;;21079437;28;20058;-66
2023/07/18 10:37:55;;;;;;;10.30;4.10;;;;;;;;;;21078921;28;20485;-65
2023/07/18 10:47:56;;;;;;;7.68;4.03;;;;;;;;;;21077349;28;20052;-68
2023/07/18 10:57:57;;;;;;;9.48;3.70;;;;;;;;;;21093327;28;20164;-67
2023/07/18 11:07:59;;;;;;;6.50;3.33;;;;;;;;;;21098570;28;20040;-73
2023/07/18 11:18:00;;;;;;;8.20;3.03;;;;;;;;;;21116056;28;20036;-78
2023/07/18 11:28:03;;;;;;;11.50;3.75;;;;;;;;;;21092919;28;20101;-76
2023/07/18 11:38:04;;;;;;;8.47;3.57;;;;;;;;;;21089170;28;20055;-62
2023/07/18 11:48:06;;;;;;;6.57;3.40;;;;;;;;;;21088222;28;20040;-64
2023/07/18 11:58:09;;;;;;;8.32;3.58;;;;;;;;;;21089440;28;20089;-64
2023/07/18 12:08:12;;;;;;;;;;;;;;;;;;21085290;28;20044;-64
2023/07/18 12:18:13;;;;;;;13.85;3.20;;;;;;;;;;21084393;28;19931;-63
2023/07/18 12:28:14;;;;;;;7.95;3.67;;;;;;;;;;21086827;28;20044;-64
2023/07/18 12:38:15;;;;;;;16.17;4.72;;;;;;;;;;21086198;28;20044;-64
2023/07/18 12:48:16;;;;;;;14.40;4.13;;;;;;;;;;21084320;28;20054;-62
2023/07/18 12:58:17;;;;;;;16.25;5.05;;;;;;;;;;21084954;28;20532;-63
2023/07/18 13:08:18;;;;;;;17.88;4.40;;;;;;;;;;21083996;28;20040;-63
2023/07/18 13:18:19;;;;;;;15.88;4.57;;;;;;;;;;21083138;28;20043;-64
2023/07/18 13:28:21;;;;;;;14.48;3.80;;;;;;;;;;21081073;28;20062;-63
2023/07/18 13:38:22;;;;;;;11.68;4.07;;;;;;;;;;21080778;28;20522;-63
2023/07/18 13:48:23;;;;;;;16.98;4.43;;;;;;;;;;21080575;28;20078;-63
2023/07/18 13:58:25;;;;;;;16.45;4.38;;;;;;;;;;21080153;28;20417;-64
2023/07/18 14:08:27;;;;;;;12.25;4.55;;;;;;;;;;21078563;28;20044;-64
2023/07/18 14:18:29;;;;;;;16.00;4.90;;;;;;;;;;21078433;28;20160;-64
2023/07/18 14:28:30;;;;;;;17.98;4.78;;;;;;;;;;21086439;28;20040;-63
2023/07/18 14:38:31;;;;;;;11.15;4.60;;;;;;;;;;21095746;28;20123;-63
2023/07/18 14:48:32;;;;;;;16.92;4.65;;;;;;;;;;21095262;28;20048;-63
2023/07/18 14:58:33;;;;;;;13.85;5.28;;;;;;;;;;21094434;28;20032;-63
2023/07/18 15:08:34;;;;;;;9.13;4.13;;;;;;;;;;21093162;28;20036;-63
2023/07/18 15:18:36;;;;;;;17.83;5.82;;;;;;;;;;21092999;28;20040;-74
2023/07/18 15:28:37;;;;;;;17.08;6.15;;;;;;;;;;21092275;28;20402;-73
2023/07/18 15:38:38;;;;;;;13.55;4.93;;;;;;;;;;21088501;28;20063;-73
2023/07/18 15:48:43;;;;;;;19.38;5.40;;;;;;;;;;21089188;28;20040;-68
2023/07/18 15:58:44;;;;;;;17.92;4.60;;;;;;;;;;21090222;28;20056;-68
2023/07/18 16:08:46;;;;;;;14.30;5.35;;;;;;;;;;21089105;28;20080;-65
2023/07/18 16:18:54;;;;;;;14.77;5.00;;;;;;;;;;21087484;28;20040;-65
2023/07/18 16:28:55;;;;;;;14.95;5.07;;;;;;;;;;21087310;28;20086;-71
2023/07/18 16:38:56;;;;;;;20.60;5.43;;;;;;;;;;21086047;28;20135;-68
2023/07/18 16:48:58;;;;;;;15.50;4.90;;;;;;;;;;21084842;28;20044;-67
2023/07/18 16:58:59;;;;;;;18.30;5.35;;;;;;;;;;21083850;28;20048;-67
2023/07/18 17:09:00;;;;;;;16.05;5.38;;;;;;;;;;21084405;28;20043;-71
2023/07/18 17:19:01;;;;;;;17.98;5.40;;;;;;;;;;21084078;28;20040;-71
2023/07/18 17:29:02;;;;;;;20.33;5.65;;;;;;;;;;21080987;28;20054;-66
2023/07/18 17:39:04;;;;;;;18.15;6.13;;;;;;;;;;21080552;28;20048;-64
2023/07/18 17:49:05;;;;;;;26.52;6.45;;;;;;;;;;21081456;28;20496;-64
2023/07/18 17:59:08;;;;;;;18.15;5.55;;;;;;;;;;21080455;28;20044;-64
2023/07/18 18:09:09;;;;;;;17.97;6.00;;;;;;;;;;21079995;28;20119;-65
2023/07/18 18:19:10;;;;;;;23.60;5.85;;;;;;;;;;21079937;28;20481;-64
2023/07/18 18:29:11;;;;;;;20.83;5.50;;;;;;;;;;21078350;28;20501;-65
2023/07/18 18:39:12;;;;;;;17.52;5.88;;;;;;;;;;21078200;28;20051;-64
2023/07/18 18:49:14;;;;;;;18.25;5.53;;;;;;;;;;21079033;28;20040;-64
2023/07/18 18:59:15;;;;;;;20.73;5.68;;;;;;;;;;21078307;28;20048;-63
2023/07/18 19:09:17;;;;;;;22.02;6.18;;;;;;;;;;21078436;28;20042;-64
2023/07/18 19:19:19;;;;;;;24.02;5.97;;;;;;;;;;21091183;28;20148;-64
2023/07/18 19:29:20;;;;;;;22.75;6.15;;;;;;;;;;21092353;28;20040;-65
2023/07/18 19:39:21;;;;;;;28.08;5.18;;;;;;;;;;21091151;28;20109;-64
2023/07/18 19:49:22;;;;;;;21.63;6.35;;;;;;;;;;21090273;28;20537;-64
2023/07/18 19:59:24;;;;;;;22.58;5.80;;;;;;;;;;21088103;28;20051;-64
2023/07/18 20:09:25;;;;;;;22.38;6.70;;;;;;;;;;21087305;28;20044;-64
2023/07/18 20:19:26;;;;;;;16.10;6.07;;;;;;;;;;21086398;28;20127;-65
2023/07/18 20:29:27;;;;;;;24.25;6.10;;;;;;;;;;21085966;28;20097;-64
2023/07/18 20:39:33;;;;;;;18.08;6.00;;;;;;;;;;21084512;28;20083;-65
2023/07/18 20:49:34;;;;;;;22.30;6.18;;;;;;;;;;21085324;28;20040;-64
2023/07/18 20:59:35;;;;;;;23.92;5.82;;;;;;;;;;21084630;28;20380;-64
2023/07/18 21:09:36;;;;;;;20.20;5.88;;;;;;;;;;21083662;28;20051;-64
2023/07/18 21:19:37;;;;;;;18.02;4.85;;;;;;;;;;21082014;28;20048;-63
2023/07/18 21:29:38;;;;;;;18.60;5.03;;;;;;;;;;21081047;28;20059;-63
2023/07/18 21:39:40;;;;;;;18.13;6.03;;;;;;;;;;21079552;28;20063;-64
2023/07/18 21:49:41;;;;;;;13.80;4.88;;;;;;;;;;21079591;28;20052;-64
2023/07/18 21:59:42;;;;;;;20.08;4.90;;;;;;;;;;21080570;28;20047;-64
2023/07/18 22:09:44;;;;;;;18.35;5.63;;;;;;;;;;21078666;28;20558;-65
2023/07/18 22:19:45;;;;;;;20.00;5.85;;;;;;;;;;21078128;28;20142;-64
2023/07/18 22:29:46;;;;;;;23.45;6.00;;;;;;;;;;21079684;28;20072;-65
2023/07/18 22:39:47;;;;;;;17.20;5.90;;;;;;;;;;21077423;28;20056;-64
2023/07/18 22:49:48;;;;;;;18.83;5.47;;;;;;;;;;21087279;28;20044;-64
2023/07/18 22:59:49;;;;;;;16.92;6.40;;;;;;;;;;21094890;28;20040;-64
2023/07/18 23:09:50;;;;;;;21.50;6.35;;;;;;;;;;21093978;28;20048;-64
2023/07/18 23:19:51;;;;;;;16.45;5.13;;;;;;;;;;21093050;28;20116;-64
2023/07/18 23:29:52;;;;;;;15.18;5.10;;;;;;;;;;21091320;28;20048;-64
2023/07/18 23:39:54;;;;;;;20.00;5.82;;;;;;;;;;21091156;28;20134;-64
2023/07/18 23:49:55;;;;;;;17.77;5.05;;;;;;;;;;21090986;28;20051;-64
2023/07/18 23:59:56;;;;;;;14.02;4.15;;;;;;;;;;21088805;28;20070;-64
